Ana Sayfa
METAR-TAF:

METAR-TAF

Havaalanları :

Grand Turk, Turks ve Caicos Adaları

Enlem: 21-26-40N, Boylam: 071-08-32W, yükseklik: 4 m

Güncel hava durumu gözlemi

Rapor saat 05:00 UTC de 8 saat ve 24 dakika önce yapıldı.
Rüzgar doğudan 13 kt
Sıcaklık 28°C
Nem 89%
Basınç 1021 hPa
Görüş mesafesi: 8000 m
3500 ft yükseklikte parçalı çok bulutlu, Yükselen kümülüs.

METAR: MBGT 210500Z 08013KT 8000 BKN035TCU 28/26 Q1021

Saat: 09:24 (13:24 UTC)

Tahmin

Rapor saat 11:00 UTC de 2 saat ve 24 dakika önce yapıldı.
Ayın 21'si saat 12 UTC'den ayın 22'si saat 12 UTC'ye kadar geçerli Tahmin
Rüzgar doğudan 15 kt ve 25 kt'a kadar ani rüzgarlar
Görüş mesafesi 10 km veya daha fazla
1800 ft yükseklikte az bulutlu, Kümülonimbus.
2000 ft yükseklikte parçalı bulutlu
12000 ft yükseklikte parçalı çok bulutlu
Civarda sağanaklar,

TAF: MBGT 211100Z 2112/2212 09015G25KT 9999 VCSH FEW018CB SCT020 BKN120

4.000'den fazla havaalanı için hava durumu gözlemleri ve tahminleri (METAR ve TAF raporları).

Kullanılabilir istasyonlar harita üzerinde sarı ve kırmızı noktalarla gösterilir.

İstasyonun adını görmek için fareyi noktanın üzerinde gezdirin.

Sonrasında hava gözlem ve tahminlerini görmek için tıklayın.

Haritayı değiştirmek için: yaklaştırmak için siyah artı işaretli yeşil düğmeye ve uzaklaştırmak için de eksi işaretli düğmeye hızla tıklayın; bitişik haritalar için yeşil okları kullanın.


METAR-TAF: